createdAt,value
2022-12-01T00:00:23.550Z,92.06
2022-12-01T00:05:25.057Z,88.13
2022-12-01T00:10:26.815Z,90.22
2022-12-01T00:15:31.011Z,87.39
2022-12-01T00:20:35.543Z,85.51
2022-12-01T00:25:37.054Z,84.56
2022-12-01T00:30:38.511Z,85.69
2022-12-01T00:35:39.970Z,83.84
2022-12-01T00:40:41.400Z,85.31
2022-12-01T00:45:43.354Z,85.96
2022-12-01T00:50:45.733Z,85.77
2022-12-01T00:55:47.624Z,86.50
2022-12-01T01:00:49.622Z,83.62
2022-12-01T01:05:51.168Z,79.85
2022-12-01T01:10:52.624Z,82.75
2022-12-01T01:16:03.303Z,81.46
2022-12-01T01:21:11.154Z,82.17
2022-12-01T01:26:30.871Z,80.50
2022-12-01T01:31:32.372Z,81.81
2022-12-01T01:36:33.911Z,81.59
2022-12-01T01:41:35.407Z,82.34
2022-12-01T01:46:37.407Z,81.32
2022-12-01T01:51:43.456Z,83.07
2022-12-01T01:56:46.226Z,84.05
2022-12-01T02:01:55.309Z,84.43
2022-12-01T02:06:56.911Z,85.08
2022-12-01T02:12:03.508Z,85.17
2022-12-01T02:17:31.782Z,86.70
2022-12-01T02:23:15.348Z,86.96
2022-12-01T02:28:44.781Z,85.38
2022-12-01T02:34:23.264Z,86.58
2022-12-01T02:40:03.705Z,84.53
2022-12-01T02:45:11.406Z,84.97
2022-12-01T02:50:13.585Z,85.60
2022-12-01T02:55:15.062Z,87.07
2022-12-01T03:00:17.953Z,87.70
2022-12-01T03:05:38.190Z,85.92
2022-12-01T03:10:57.818Z,85.83
2022-12-01T03:16:21.710Z,84.30
2022-12-01T03:21:32.090Z,84.79
2022-12-01T03:26:36.375Z,84.61
2022-12-01T03:31:44.856Z,84.32
2022-12-01T03:36:52.678Z,84.69
2022-12-01T03:41:59.856Z,84.76
2022-12-01T03:47:09.129Z,84.87
2022-12-01T03:52:20.374Z,85.13
2022-12-01T03:57:29.773Z,85.88
2022-12-01T04:02:31.945Z,85.44
2022-12-01T04:07:33.586Z,86.24
2022-12-01T04:12:35.144Z,86.19
2022-12-01T04:17:36.969Z,85.84
2022-12-01T04:22:38.572Z,85.62
2022-12-01T04:27:40.253Z,85.82
2022-12-01T04:32:43.520Z,85.47
2022-12-01T04:37:44.949Z,85.71
2022-12-01T04:42:46.365Z,84.62
2022-12-01T04:47:47.792Z,85.88
2022-12-01T04:52:49.417Z,86.53
2022-12-01T04:57:50.850Z,86.07
2022-12-01T05:02:52.350Z,86.07
2022-12-01T05:07:53.945Z,85.66
2022-12-01T05:12:57.730Z,86.24
2022-12-01T05:17:59.410Z,86.33
2022-12-01T05:23:05.732Z,86.07
2022-12-01T05:28:07.718Z,86.83
2022-12-01T05:33:09.255Z,87.90
2022-12-01T05:38:11.789Z,87.44
2022-12-01T05:43:13.234Z,87.20
2022-12-01T05:48:14.690Z,87.32
2022-12-01T05:53:16.810Z,87.68
2022-12-01T05:58:18.250Z,87.57
2022-12-01T06:03:19.723Z,88.97
2022-12-01T06:08:21.199Z,88.04
2022-12-01T06:13:22.973Z,88.06
2022-12-01T06:18:25.668Z,88.36
2022-12-01T06:23:30.330Z,88.67
2022-12-01T06:28:32.372Z,88.17
2022-12-01T06:33:34.138Z,88.92
2022-12-01T06:38:37.128Z,88.69
2022-12-01T06:43:38.755Z,89.34
2022-12-01T06:48:40.234Z,89.24
2022-12-01T06:53:41.691Z,88.47
2022-12-01T06:58:43.165Z,89.75
2022-12-01T07:03:49.618Z,89.49
2022-12-01T07:08:52.429Z,89.89
2022-12-01T07:13:57.091Z,89.18
2022-12-01T07:18:59.974Z,89.01
2022-12-01T07:24:03.115Z,89.27
2022-12-01T07:29:04.605Z,88.90
2022-12-01T07:34:06.445Z,87.89
2022-12-01T07:39:08.776Z,87.88
2022-12-01T07:44:11.147Z,88.75
2022-12-01T07:49:15.005Z,88.05
2022-12-01T07:54:17.643Z,88.93
2022-12-01T07:59:19.131Z,88.89
2022-12-01T08:04:20.565Z,89.63
2022-12-01T08:09:22.036Z,88.70
2022-12-01T08:14:23.488Z,88.09
2022-12-01T08:19:25.859Z,88.53
2022-12-01T08:24:27.342Z,88.08
2022-12-01T08:29:28.831Z,87.72
2022-12-01T08:34:30.364Z,88.44
2022-12-01T08:39:31.857Z,87.98
2022-12-01T08:44:33.308Z,87.79
2022-12-01T08:49:35.107Z,87.57
2022-12-01T08:54:36.779Z,87.01
2022-12-01T08:59:38.533Z,87.98
2022-12-01T09:04:40.019Z,87.75
2022-12-01T09:09:41.972Z,87.49
2022-12-01T09:14:49.528Z,87.55
2022-12-01T09:19:51.307Z,87.92
2022-12-01T09:24:53.079Z,88.22
2022-12-01T09:29:54.532Z,87.13
2022-12-01T09:34:55.977Z,87.49
2022-12-01T09:39:57.425Z,87.25
2022-12-01T09:45:02.724Z,85.88
2022-12-01T09:50:06.598Z,85.55
2022-12-01T09:55:16.322Z,87.15
2022-12-01T10:00:24.791Z,86.84
2022-12-01T10:05:31.756Z,85.82
2022-12-01T10:10:46.365Z,86.31
2022-12-01T10:15:53.880Z,87.53
2022-12-01T10:21:23.525Z,86.16
2022-12-01T10:26:43.298Z,86.75
2022-12-01T10:31:52.646Z,87.73
2022-12-01T10:36:57.253Z,87.27
2022-12-01T10:42:13.775Z,86.14
2022-12-01T10:47:21.738Z,85.24
2022-12-01T10:52:38.564Z,84.48
2022-12-01T10:58:11.522Z,85.59
2022-12-01T11:16:08.112Z,84.55
2022-12-01T11:27:42.532Z,83.92
2022-12-01T11:32:29.194Z,83.97
2022-12-01T11:37:38.174Z,84.43
2022-12-01T11:42:41.457Z,85.28
2022-12-01T11:48:06.318Z,84.42
2022-12-01T11:53:39.215Z,82.86
2022-12-01T11:58:44.654Z,84.17
2022-12-01T12:04:01.963Z,83.62
2022-12-01T12:09:21.854Z,83.59
2022-12-01T12:14:40.000Z,83.68
2022-12-01T12:20:07.672Z,83.58
2022-12-01T12:25:27.627Z,84.31
2022-12-01T12:30:31.461Z,84.01
2022-12-01T12:36:01.144Z,84.41
2022-12-01T12:41:41.583Z,83.64
2022-12-01T12:47:03.666Z,84.14
2022-12-01T12:52:12.596Z,84.25
2022-12-01T12:57:59.774Z,83.44
2022-12-01T13:03:34.042Z,83.53
2022-12-01T13:08:41.274Z,84.03
2022-12-01T13:13:55.028Z,85.61
2022-12-01T13:19:07.786Z,85.22
2022-12-01T13:24:26.239Z,84.89
2022-12-01T13:29:42.449Z,85.69
2022-12-01T13:34:50.903Z,85.85
2022-12-01T13:39:59.741Z,85.00
2022-12-01T13:45:08.377Z,85.00
2022-12-01T13:50:43.102Z,83.96
2022-12-01T13:56:06.872Z,85.00
2022-12-01T14:01:26.618Z,85.29
2022-12-01T14:06:32.981Z,85.90
2022-12-01T14:11:36.603Z,85.10
2022-12-01T14:17:12.526Z,86.26
2022-12-01T14:22:54.554Z,84.28
2022-12-01T14:28:13.294Z,85.92
2022-12-01T14:33:33.718Z,83.80
2022-12-01T14:38:54.771Z,85.03
2022-12-01T14:44:15.586Z,85.48
2022-12-01T14:49:47.198Z,85.49
2022-12-01T14:55:14.439Z,86.07
2022-12-01T15:06:06.233Z,85.25
2022-12-01T15:11:21.889Z,84.90
2022-12-01T15:16:32.122Z,85.27
2022-12-01T15:21:36.448Z,86.27
2022-12-01T15:26:47.416Z,85.60
2022-12-01T15:31:56.729Z,86.54
2022-12-01T15:37:02.640Z,85.78
2022-12-01T15:42:13.745Z,86.18
2022-12-01T15:47:50.175Z,87.07
2022-12-01T15:52:54.131Z,86.25
2022-12-01T15:57:58.353Z,86.95
2022-12-01T16:03:03.372Z,86.62
2022-12-01T16:08:20.091Z,86.20
2022-12-01T16:13:47.466Z,86.82
2022-12-01T16:19:04.249Z,87.02
2022-12-01T16:24:06.419Z,87.27
2022-12-01T16:29:23.928Z,86.49
2022-12-01T16:34:45.292Z,85.86
2022-12-01T16:39:48.119Z,86.25
2022-12-01T16:44:51.504Z,87.02
2022-12-01T16:49:55.862Z,87.29
2022-12-01T16:55:02.535Z,86.76
2022-12-01T17:00:04.596Z,86.62
2022-12-01T17:05:06.493Z,86.35
2022-12-01T17:10:08.661Z,86.47
2022-12-01T17:15:10.636Z,86.98
2022-12-01T17:20:12.985Z,87.87
2022-12-01T17:25:14.617Z,86.67
2022-12-01T17:30:16.409Z,87.15
2022-12-01T17:35:18.269Z,86.98
2022-12-01T17:40:20.019Z,87.04
2022-12-01T18:03:33.881Z,88.07
2022-12-01T18:08:50.226Z,87.89
2022-12-01T18:20:43.710Z,88.06
2022-12-01T18:25:19.043Z,87.97
2022-12-01T18:35:59.679Z,87.07
2022-12-01T18:41:12.564Z,87.90
2022-12-01T18:47:17.562Z,87.65
2022-12-01T18:52:07.810Z,88.23
2022-12-01T18:57:18.264Z,88.03
2022-12-01T19:07:57.669Z,88.88
2022-12-01T19:12:59.220Z,88.92
2022-12-01T19:18:00.937Z,89.09
2022-12-01T19:23:02.395Z,88.31
2022-12-01T19:28:03.919Z,89.28
2022-12-01T19:33:05.588Z,89.26
2022-12-01T19:38:07.511Z,88.70
2022-12-01T19:43:09.140Z,88.52
2022-12-01T19:48:10.559Z,88.71
2022-12-01T19:53:12.000Z,88.72
2022-12-01T19:58:13.508Z,88.85
2022-12-01T20:03:14.941Z,88.87
2022-12-01T20:08:16.384Z,89.44
2022-12-01T20:13:17.794Z,89.46
2022-12-01T20:18:19.386Z,89.83
2022-12-01T20:23:20.805Z,90.05
2022-12-01T20:28:22.285Z,89.62
2022-12-01T20:33:24.861Z,91.00
2022-12-01T20:38:27.789Z,90.96
2022-12-01T20:43:29.439Z,91.11
2022-12-01T20:48:31.668Z,90.84
2022-12-01T20:53:33.190Z,90.84
2022-12-01T20:58:37.736Z,91.05
2022-12-01T21:03:41.980Z,90.94
2022-12-01T21:08:45.033Z,91.40
2022-12-01T21:13:46.942Z,92.00
2022-12-01T21:18:55.461Z,92.09
2022-12-01T21:23:59.892Z,91.44
2022-12-01T21:29:02.705Z,92.09
2022-12-01T21:34:13.882Z,90.96
2022-12-01T21:39:21.434Z,91.79
2022-12-01T21:44:29.892Z,91.68
2022-12-01T21:49:38.483Z,91.74
2022-12-01T21:54:39.891Z,92.68
2022-12-01T21:59:41.281Z,91.63
2022-12-01T22:04:43.344Z,91.69
2022-12-01T22:09:44.755Z,91.80
2022-12-01T22:14:46.167Z,92.52
2022-12-01T22:20:02.478Z,92.76
2022-12-01T22:25:25.258Z,92.09
2022-12-01T22:30:26.676Z,92.33
2022-12-01T22:35:32.900Z,92.37
2022-12-01T22:40:45.673Z,92.75
2022-12-01T22:45:49.373Z,91.85
2022-12-01T22:50:52.052Z,92.73
2022-12-01T22:55:55.712Z,92.75
2022-12-01T23:01:22.306Z,93.13
2022-12-01T23:06:54.930Z,92.89
2022-12-01T23:12:00.679Z,92.99
2022-12-01T23:17:07.744Z,93.07
2022-12-01T23:22:10.181Z,92.72
2022-12-01T23:27:11.980Z,93.27
2022-12-01T23:32:13.533Z,93.00
2022-12-01T23:37:31.600Z,93.69
2022-12-01T23:42:33.111Z,93.46
2022-12-01T23:47:34.643Z,93.51
2022-12-01T23:52:36.819Z,94.15
2022-12-01T23:57:38.299Z,94.29
